sensor_id;sensor_type;location;lat;lon;timestamp;P1;durP1;ratioP1;P2;durP2;ratioP2
37131;SDS011;23035;50.032;21.978;2023-07-13T00:02:39;11.20;;;7.88;;
37131;SDS011;23035;50.032;21.978;2023-07-13T00:07:43;12.50;;;7.93;;
37131;SDS011;23035;50.032;21.978;2023-07-13T00:12:50;9.68;;;8.02;;
37131;SDS011;23035;50.032;21.978;2023-07-13T00:17:57;9.95;;;7.30;;
37131;SDS011;23035;50.032;21.978;2023-07-13T00:23:03;10.57;;;7.38;;
37131;SDS011;23035;50.032;21.978;2023-07-13T00:28:09;10.80;;;7.80;;
37131;SDS011;23035;50.032;21.978;2023-07-13T00:38:20;11.40;;;7.95;;
37131;SDS011;23035;50.032;21.978;2023-07-13T00:43:27;11.47;;;7.57;;
37131;SDS011;23035;50.032;21.978;2023-07-13T00:48:33;11.98;;;7.53;;
37131;SDS011;23035;50.032;21.978;2023-07-13T00:53:39;12.02;;;7.80;;
37131;SDS011;23035;50.032;21.978;2023-07-13T00:58:45;11.77;;;7.60;;
37131;SDS011;23035;50.032;21.978;2023-07-13T01:03:50;12.10;;;7.65;;
37131;SDS011;23035;50.032;21.978;2023-07-13T01:08:54;15.27;;;7.97;;
37131;SDS011;23035;50.032;21.978;2023-07-13T01:14:03;9.40;;;7.53;;
37131;SDS011;23035;50.032;21.978;2023-07-13T01:19:10;10.45;;;7.40;;
37131;SDS011;23035;50.032;21.978;2023-07-13T01:24:22;11.77;;;8.13;;
37131;SDS011;23035;50.032;21.978;2023-07-13T01:29:26;13.13;;;8.13;;
37131;SDS011;23035;50.032;21.978;2023-07-13T01:34:30;11.23;;;8.00;;
37131;SDS011;23035;50.032;21.978;2023-07-13T01:39:35;13.32;;;7.93;;
37131;SDS011;23035;50.032;21.978;2023-07-13T01:44:40;10.43;;;7.03;;
37131;SDS011;23035;50.032;21.978;2023-07-13T01:49:44;11.07;;;7.35;;
37131;SDS011;23035;50.032;21.978;2023-07-13T01:54:51;10.63;;;7.28;;
37131;SDS011;23035;50.032;21.978;2023-07-13T01:59:55;10.15;;;7.63;;
37131;SDS011;23035;50.032;21.978;2023-07-13T02:04:59;11.45;;;7.70;;
37131;SDS011;23035;50.032;21.978;2023-07-13T02:10:06;13.23;;;7.95;;
37131;SDS011;23035;50.032;21.978;2023-07-13T02:15:11;13.60;;;7.93;;
37131;SDS011;23035;50.032;21.978;2023-07-13T02:20:15;11.80;;;8.13;;
37131;SDS011;23035;50.032;21.978;2023-07-13T02:25:21;13.57;;;7.97;;
37131;SDS011;23035;50.032;21.978;2023-07-13T02:35:29;13.90;;;8.45;;
37131;SDS011;23035;50.032;21.978;2023-07-13T02:40:35;13.33;;;7.93;;
37131;SDS011;23035;50.032;21.978;2023-07-13T02:45:43;13.77;;;8.98;;
37131;SDS011;23035;50.032;21.978;2023-07-13T02:50:47;14.43;;;8.68;;
37131;SDS011;23035;50.032;21.978;2023-07-13T02:55:53;14.20;;;8.35;;
37131;SDS011;23035;50.032;21.978;2023-07-13T03:06:02;18.00;;;8.30;;
37131;SDS011;23035;50.032;21.978;2023-07-13T03:11:17;12.93;;;8.52;;
37131;SDS011;23035;50.032;21.978;2023-07-13T03:16:29;15.85;;;8.15;;
37131;SDS011;23035;50.032;21.978;2023-07-13T03:21:34;14.68;;;8.13;;
37131;SDS011;23035;50.032;21.978;2023-07-13T03:26:40;10.90;;;7.40;;
37131;SDS011;23035;50.032;21.978;2023-07-13T03:31:44;15.93;;;8.48;;
37131;SDS011;23035;50.032;21.978;2023-07-13T03:36:49;15.27;;;9.20;;
37131;SDS011;23035;50.032;21.978;2023-07-13T03:41:54;15.33;;;9.07;;
37131;SDS011;23035;50.032;21.978;2023-07-13T03:46:59;17.35;;;9.55;;
37131;SDS011;23035;50.032;21.978;2023-07-13T03:52:04;10.98;;;8.40;;
37131;SDS011;23035;50.032;21.978;2023-07-13T03:57:10;13.55;;;8.57;;
37131;SDS011;23035;50.032;21.978;2023-07-13T04:02:14;13.85;;;11.52;;
37131;SDS011;23035;50.032;21.978;2023-07-13T04:07:20;14.80;;;13.30;;
37131;SDS011;23035;50.032;21.978;2023-07-13T04:12:25;17.00;;;15.25;;
37131;SDS011;23035;50.032;21.978;2023-07-13T04:17:32;18.05;;;14.55;;
37131;SDS011;23035;50.032;21.978;2023-07-13T04:22:36;18.85;;;14.23;;
37131;SDS011;23035;50.032;21.978;2023-07-13T04:27:41;18.08;;;12.02;;
37131;SDS011;23035;50.032;21.978;2023-07-13T04:37:51;13.02;;;9.00;;
37131;SDS011;23035;50.032;21.978;2023-07-13T04:43:00;12.73;;;9.38;;
37131;SDS011;23035;50.032;21.978;2023-07-13T04:48:08;13.18;;;9.05;;
37131;SDS011;23035;50.032;21.978;2023-07-13T04:53:15;17.20;;;9.45;;
37131;SDS011;23035;50.032;21.978;2023-07-13T04:58:23;12.85;;;9.20;;
37131;SDS011;23035;50.032;21.978;2023-07-13T05:03:32;13.75;;;8.05;;
37131;SDS011;23035;50.032;21.978;2023-07-13T05:08:40;13.73;;;8.65;;
37131;SDS011;23035;50.032;21.978;2023-07-13T05:13:48;10.55;;;7.32;;
37131;SDS011;23035;50.032;21.978;2023-07-13T05:23:56;14.98;;;8.73;;
37131;SDS011;23035;50.032;21.978;2023-07-13T05:29:13;10.70;;;7.85;;
37131;SDS011;23035;50.032;21.978;2023-07-13T05:39:21;15.65;;;8.35;;
37131;SDS011;23035;50.032;21.978;2023-07-13T05:44:27;13.35;;;8.43;;
37131;SDS011;23035;50.032;21.978;2023-07-13T05:49:31;13.02;;;8.10;;
37131;SDS011;23035;50.032;21.978;2023-07-13T05:54:35;17.13;;;8.43;;
37131;SDS011;23035;50.032;21.978;2023-07-13T05:59:41;10.40;;;7.80;;
37131;SDS011;23035;50.032;21.978;2023-07-13T06:04:45;16.10;;;11.43;;
37131;SDS011;23035;50.032;21.978;2023-07-13T06:09:51;16.95;;;11.23;;
37131;SDS011;23035;50.032;21.978;2023-07-13T06:14:56;15.52;;;9.52;;
37131;SDS011;23035;50.032;21.978;2023-07-13T06:20:00;13.32;;;8.70;;
37131;SDS011;23035;50.032;21.978;2023-07-13T06:25:05;12.63;;;10.30;;
37131;SDS011;23035;50.032;21.978;2023-07-13T06:30:12;14.68;;;7.97;;
37131;SDS011;23035;50.032;21.978;2023-07-13T06:35:17;14.45;;;9.52;;
37131;SDS011;23035;50.032;21.978;2023-07-13T06:40:21;10.88;;;8.35;;
37131;SDS011;23035;50.032;21.978;2023-07-13T06:45:27;15.95;;;8.68;;
37131;SDS011;23035;50.032;21.978;2023-07-13T06:50:31;10.43;;;7.60;;
37131;SDS011;23035;50.032;21.978;2023-07-13T06:55:35;9.40;;;7.80;;
37131;SDS011;23035;50.032;21.978;2023-07-13T07:00:40;11.60;;;6.57;;
37131;SDS011;23035;50.032;21.978;2023-07-13T07:05:44;9.70;;;7.18;;
37131;SDS011;23035;50.032;21.978;2023-07-13T07:10:49;10.40;;;7.07;;
37131;SDS011;23035;50.032;21.978;2023-07-13T07:15:58;11.52;;;7.43;;
37131;SDS011;23035;50.032;21.978;2023-07-13T07:21:03;9.57;;;6.93;;
37131;SDS011;23035;50.032;21.978;2023-07-13T07:26:07;9.43;;;6.85;;
37131;SDS011;23035;50.032;21.978;2023-07-13T07:31:14;10.18;;;6.93;;
37131;SDS011;23035;50.032;21.978;2023-07-13T07:36:21;10.57;;;7.43;;
37131;SDS011;23035;50.032;21.978;2023-07-13T07:41:28;9.68;;;7.60;;
37131;SDS011;23035;50.032;21.978;2023-07-13T07:46:36;10.20;;;8.00;;
37131;SDS011;23035;50.032;21.978;2023-07-13T07:51:40;12.23;;;8.73;;
37131;SDS011;23035;50.032;21.978;2023-07-13T07:56:45;13.03;;;7.40;;
37131;SDS011;23035;50.032;21.978;2023-07-13T08:02:11;11.75;;;7.95;;
37131;SDS011;23035;50.032;21.978;2023-07-13T08:07:36;8.98;;;6.95;;
37131;SDS011;23035;50.032;21.978;2023-07-13T08:12:41;11.00;;;6.40;;
37131;SDS011;23035;50.032;21.978;2023-07-13T08:18:09;10.02;;;6.18;;
37131;SDS011;23035;50.032;21.978;2023-07-13T08:23:13;8.30;;;6.38;;
37131;SDS011;23035;50.032;21.978;2023-07-13T08:28:19;8.23;;;5.68;;
37131;SDS011;23035;50.032;21.978;2023-07-13T08:38:29;10.77;;;5.80;;
37131;SDS011;23035;50.032;21.978;2023-07-13T08:43:34;9.55;;;5.68;;
37131;SDS011;23035;50.032;21.978;2023-07-13T08:48:42;6.63;;;5.35;;
37131;SDS011;23035;50.032;21.978;2023-07-13T08:53:50;8.07;;;6.45;;
37131;SDS011;23035;50.032;21.978;2023-07-13T08:58:58;6.80;;;5.80;;
37131;SDS011;23035;50.032;21.978;2023-07-13T09:04:09;12.02;;;6.38;;
37131;SDS011;23035;50.032;21.978;2023-07-13T09:09:20;8.07;;;6.13;;
37131;SDS011;23035;50.032;21.978;2023-07-13T09:14:34;10.48;;;8.07;;
37131;SDS011;23035;50.032;21.978;2023-07-13T09:19:50;14.27;;;10.15;;
37131;SDS011;23035;50.032;21.978;2023-07-13T09:25:04;8.20;;;6.10;;
37131;SDS011;23035;50.032;21.978;2023-07-13T09:30:24;8.23;;;5.67;;
37131;SDS011;23035;50.032;21.978;2023-07-13T09:35:37;23.52;;;6.88;;
37131;SDS011;23035;50.032;21.978;2023-07-13T09:40:44;9.32;;;6.05;;
37131;SDS011;23035;50.032;21.978;2023-07-13T09:45:56;7.50;;;5.35;;
37131;SDS011;23035;50.032;21.978;2023-07-13T09:56:20;8.57;;;7.43;;
37131;SDS011;23035;50.032;21.978;2023-07-13T10:01:31;10.03;;;6.23;;
37131;SDS011;23035;50.032;21.978;2023-07-13T10:06:39;8.88;;;6.43;;
37131;SDS011;23035;50.032;21.978;2023-07-13T10:11:45;8.50;;;5.97;;
37131;SDS011;23035;50.032;21.978;2023-07-13T10:16:49;9.18;;;6.03;;
37131;SDS011;23035;50.032;21.978;2023-07-13T10:22:16;8.55;;;6.05;;
37131;SDS011;23035;50.032;21.978;2023-07-13T10:27:29;14.45;;;6.43;;
37131;SDS011;23035;50.032;21.978;2023-07-13T10:32:37;13.45;;;11.98;;
37131;SDS011;23035;50.032;21.978;2023-07-13T10:37:44;7.65;;;5.65;;
37131;SDS011;23035;50.032;21.978;2023-07-13T10:42:54;8.07;;;5.10;;
37131;SDS011;23035;50.032;21.978;2023-07-13T10:48:01;6.90;;;4.80;;
37131;SDS011;23035;50.032;21.978;2023-07-13T10:53:18;6.10;;;5.05;;
37131;SDS011;23035;50.032;21.978;2023-07-13T10:58:28;6.78;;;5.28;;
37131;SDS011;23035;50.032;21.978;2023-07-13T11:03:36;8.30;;;5.28;;
37131;SDS011;23035;50.032;21.978;2023-07-13T11:08:52;8.38;;;5.10;;
37131;SDS011;23035;50.032;21.978;2023-07-13T11:13:58;7.65;;;4.97;;
37131;SDS011;23035;50.032;21.978;2023-07-13T11:24:52;9.63;;;5.90;;
37131;SDS011;23035;50.032;21.978;2023-07-13T11:35:28;9.15;;;5.50;;
37131;SDS011;23035;50.032;21.978;2023-07-13T11:40:34;6.88;;;5.55;;
37131;SDS011;23035;50.032;21.978;2023-07-13T11:45:38;20.17;;;14.15;;
37131;SDS011;23035;50.032;21.978;2023-07-13T11:50:50;11.30;;;6.70;;
37131;SDS011;23035;50.032;21.978;2023-07-13T11:55:59;15.93;;;9.57;;
37131;SDS011;23035;50.032;21.978;2023-07-13T12:01:04;14.82;;;10.40;;
37131;SDS011;23035;50.032;21.978;2023-07-13T12:06:23;24.58;;;21.50;;
37131;SDS011;23035;50.032;21.978;2023-07-13T12:11:34;24.05;;;21.63;;
37131;SDS011;23035;50.032;21.978;2023-07-13T12:16:44;18.35;;;16.75;;
37131;SDS011;23035;50.032;21.978;2023-07-13T12:21:55;20.70;;;18.20;;
37131;SDS011;23035;50.032;21.978;2023-07-13T12:27:02;19.27;;;17.02;;
37131;SDS011;23035;50.032;21.978;2023-07-13T12:32:09;17.40;;;15.65;;
37131;SDS011;23035;50.032;21.978;2023-07-13T12:37:13;16.58;;;14.93;;
37131;SDS011;23035;50.032;21.978;2023-07-13T12:42:20;16.63;;;14.93;;
37131;SDS011;23035;50.032;21.978;2023-07-13T12:47:31;16.42;;;14.85;;
37131;SDS011;23035;50.032;21.978;2023-07-13T12:52:44;17.15;;;15.63;;
37131;SDS011;23035;50.032;21.978;2023-07-13T12:57:57;19.17;;;17.27;;
37131;SDS011;23035;50.032;21.978;2023-07-13T13:03:03;19.40;;;17.40;;
37131;SDS011;23035;50.032;21.978;2023-07-13T13:08:17;18.40;;;16.58;;
37131;SDS011;23035;50.032;21.978;2023-07-13T13:13:23;17.10;;;14.50;;
37131;SDS011;23035;50.032;21.978;2023-07-13T13:18:29;14.80;;;12.43;;
37131;SDS011;23035;50.032;21.978;2023-07-13T13:23:33;13.45;;;11.25;;
37131;SDS011;23035;50.032;21.978;2023-07-13T13:28:39;11.32;;;9.82;;
37131;SDS011;23035;50.032;21.978;2023-07-13T13:33:43;10.95;;;9.85;;
37131;SDS011;23035;50.032;21.978;2023-07-13T13:38:50;8.18;;;7.07;;
37131;SDS011;23035;50.032;21.978;2023-07-13T13:43:56;7.65;;;5.70;;
37131;SDS011;23035;50.032;21.978;2023-07-13T13:54:05;8.73;;;3.80;;
37131;SDS011;23035;50.032;21.978;2023-07-13T13:59:16;4.93;;;3.60;;
37131;SDS011;23035;50.032;21.978;2023-07-13T14:04:21;3.92;;;3.40;;
37131;SDS011;23035;50.032;21.978;2023-07-13T14:09:25;3.10;;;2.80;;
37131;SDS011;23035;50.032;21.978;2023-07-13T14:14:31;4.03;;;2.97;;
37131;SDS011;23035;50.032;21.978;2023-07-13T14:19:37;3.53;;;2.67;;
37131;SDS011;23035;50.032;21.978;2023-07-13T14:24:41;2.92;;;2.42;;
37131;SDS011;23035;50.032;21.978;2023-07-13T14:29:46;7.43;;;2.50;;
37131;SDS011;23035;50.032;21.978;2023-07-13T14:34:50;4.00;;;2.55;;
37131;SDS011;23035;50.032;21.978;2023-07-13T14:39:55;3.78;;;2.47;;
37131;SDS011;23035;50.032;21.978;2023-07-13T14:45:00;2.25;;;2.05;;
37131;SDS011;23035;50.032;21.978;2023-07-13T14:50:07;4.43;;;2.25;;
37131;SDS011;23035;50.032;21.978;2023-07-13T14:55:19;2.50;;;2.30;;
37131;SDS011;23035;50.032;21.978;2023-07-13T15:00:25;3.70;;;3.25;;
37131;SDS011;23035;50.032;21.978;2023-07-13T15:05:30;4.95;;;4.20;;
37131;SDS011;23035;50.032;21.978;2023-07-13T15:10:35;7.53;;;4.53;;
37131;SDS011;23035;50.032;21.978;2023-07-13T15:15:41;6.78;;;5.00;;
37131;SDS011;23035;50.032;21.978;2023-07-13T15:20:48;5.22;;;3.50;;
37131;SDS011;23035;50.032;21.978;2023-07-13T15:25:54;4.57;;;3.28;;
37131;SDS011;23035;50.032;21.978;2023-07-13T15:31:00;4.90;;;3.28;;
37131;SDS011;23035;50.032;21.978;2023-07-13T15:41:10;6.68;;;3.90;;
37131;SDS011;23035;50.032;21.978;2023-07-13T15:46:22;3.80;;;3.40;;
37131;SDS011;23035;50.032;21.978;2023-07-13T15:51:27;12.07;;;3.72;;
37131;SDS011;23035;50.032;21.978;2023-07-13T15:56:33;6.47;;;3.50;;
37131;SDS011;23035;50.032;21.978;2023-07-13T16:01:41;3.63;;;2.90;;
37131;SDS011;23035;50.032;21.978;2023-07-13T16:06:48;3.00;;;2.70;;
37131;SDS011;23035;50.032;21.978;2023-07-13T16:11:53;3.33;;;2.70;;
37131;SDS011;23035;50.032;21.978;2023-07-13T16:17:01;4.13;;;3.53;;
37131;SDS011;23035;50.032;21.978;2023-07-13T16:22:08;4.82;;;3.63;;
37131;SDS011;23035;50.032;21.978;2023-07-13T16:27:18;3.92;;;3.53;;
37131;SDS011;23035;50.032;21.978;2023-07-13T16:32:24;4.72;;;3.55;;
37131;SDS011;23035;50.032;21.978;2023-07-13T16:37:28;4.63;;;3.92;;
37131;SDS011;23035;50.032;21.978;2023-07-13T16:42:33;6.72;;;4.25;;
37131;SDS011;23035;50.032;21.978;2023-07-13T16:47:39;5.57;;;4.43;;
37131;SDS011;23035;50.032;21.978;2023-07-13T16:52:45;5.95;;;3.92;;
37131;SDS011;23035;50.032;21.978;2023-07-13T16:57:50;4.20;;;3.85;;
37131;SDS011;23035;50.032;21.978;2023-07-13T17:02:56;4.50;;;3.83;;
37131;SDS011;23035;50.032;21.978;2023-07-13T17:08:10;4.30;;;3.53;;
37131;SDS011;23035;50.032;21.978;2023-07-13T17:13:17;6.32;;;3.88;;
37131;SDS011;23035;50.032;21.978;2023-07-13T17:18:23;6.38;;;3.97;;
37131;SDS011;23035;50.032;21.978;2023-07-13T17:23:30;5.82;;;3.88;;
37131;SDS011;23035;50.032;21.978;2023-07-13T17:28:37;5.75;;;4.07;;
37131;SDS011;23035;50.032;21.978;2023-07-13T17:33:46;7.65;;;3.50;;
37131;SDS011;23035;50.032;21.978;2023-07-13T17:38:51;5.65;;;3.67;;
37131;SDS011;23035;50.032;21.978;2023-07-13T17:43:59;5.82;;;4.40;;
37131;SDS011;23035;50.032;21.978;2023-07-13T17:49:05;6.20;;;4.10;;
37131;SDS011;23035;50.032;21.978;2023-07-13T17:54:12;5.45;;;4.20;;
37131;SDS011;23035;50.032;21.978;2023-07-13T18:04:22;6.22;;;4.90;;
37131;SDS011;23035;50.032;21.978;2023-07-13T18:09:28;7.07;;;5.07;;
37131;SDS011;23035;50.032;21.978;2023-07-13T18:14:32;9.07;;;5.43;;
37131;SDS011;23035;50.032;21.978;2023-07-13T18:19:41;4.95;;;4.45;;
37131;SDS011;23035;50.032;21.978;2023-07-13T18:24:47;7.22;;;4.53;;
37131;SDS011;23035;50.032;21.978;2023-07-13T18:29:52;5.83;;;4.00;;
37131;SDS011;23035;50.032;21.978;2023-07-13T18:34:59;6.22;;;5.05;;
37131;SDS011;23035;50.032;21.978;2023-07-13T18:45:10;6.97;;;5.00;;
37131;SDS011;23035;50.032;21.978;2023-07-13T18:50:19;8.00;;;4.47;;
37131;SDS011;23035;50.032;21.978;2023-07-13T18:55:27;10.10;;;4.07;;
37131;SDS011;23035;50.032;21.978;2023-07-13T19:00:32;8.15;;;4.25;;
37131;SDS011;23035;50.032;21.978;2023-07-13T19:05:37;7.43;;;4.72;;
37131;SDS011;23035;50.032;21.978;2023-07-13T19:11:01;11.98;;;4.90;;
37131;SDS011;23035;50.032;21.978;2023-07-13T19:21:18;7.80;;;4.93;;
37131;SDS011;23035;50.032;21.978;2023-07-13T19:26:30;7.03;;;4.70;;
37131;SDS011;23035;50.032;21.978;2023-07-13T19:31:37;9.55;;;5.13;;
37131;SDS011;23035;50.032;21.978;2023-07-13T19:36:42;9.95;;;4.82;;
37131;SDS011;23035;50.032;21.978;2023-07-13T19:41:47;11.00;;;5.32;;
37131;SDS011;23035;50.032;21.978;2023-07-13T19:46:51;11.25;;;6.32;;
37131;SDS011;23035;50.032;21.978;2023-07-13T19:52:03;9.20;;;5.55;;
37131;SDS011;23035;50.032;21.978;2023-07-13T19:57:12;12.32;;;5.97;;
37131;SDS011;23035;50.032;21.978;2023-07-13T20:02:18;12.40;;;6.68;;
37131;SDS011;23035;50.032;21.978;2023-07-13T20:07:24;17.80;;;7.13;;
37131;SDS011;23035;50.032;21.978;2023-07-13T20:17:33;19.25;;;7.50;;
37131;SDS011;23035;50.032;21.978;2023-07-13T20:22:39;13.38;;;7.03;;
37131;SDS011;23035;50.032;21.978;2023-07-13T20:32:47;14.90;;;6.65;;
37131;SDS011;23035;50.032;21.978;2023-07-13T20:37:53;19.03;;;6.93;;
37131;SDS011;23035;50.032;21.978;2023-07-13T20:42:59;8.52;;;6.07;;
37131;SDS011;23035;50.032;21.978;2023-07-13T20:48:24;13.18;;;6.75;;
37131;SDS011;23035;50.032;21.978;2023-07-13T20:53:32;13.27;;;6.07;;
37131;SDS011;23035;50.032;21.978;2023-07-13T20:58:36;13.73;;;6.13;;
37131;SDS011;23035;50.032;21.978;2023-07-13T21:03:40;12.30;;;6.63;;
37131;SDS011;23035;50.032;21.978;2023-07-13T21:08:46;13.50;;;7.23;;
37131;SDS011;23035;50.032;21.978;2023-07-13T21:13:50;12.68;;;6.18;;
37131;SDS011;23035;50.032;21.978;2023-07-13T21:18:54;15.35;;;5.72;;
37131;SDS011;23035;50.032;21.978;2023-07-13T21:24:00;13.90;;;6.13;;
37131;SDS011;23035;50.032;21.978;2023-07-13T21:29:04;13.23;;;5.90;;
37131;SDS011;23035;50.032;21.978;2023-07-13T21:34:10;11.40;;;6.15;;
37131;SDS011;23035;50.032;21.978;2023-07-13T21:39:19;14.18;;;7.03;;
37131;SDS011;23035;50.032;21.978;2023-07-13T21:44:24;12.10;;;6.22;;
37131;SDS011;23035;50.032;21.978;2023-07-13T21:49:30;18.00;;;6.55;;
37131;SDS011;23035;50.032;21.978;2023-07-13T21:54:36;17.13;;;5.88;;
37131;SDS011;23035;50.032;21.978;2023-07-13T21:59:40;12.15;;;6.15;;
37131;SDS011;23035;50.032;21.978;2023-07-13T22:04:44;16.20;;;5.90;;
37131;SDS011;23035;50.032;21.978;2023-07-13T22:09:49;10.45;;;5.13;;
37131;SDS011;23035;50.032;21.978;2023-07-13T22:14:53;16.00;;;6.35;;
37131;SDS011;23035;50.032;21.978;2023-07-13T22:19:57;11.35;;;5.38;;
37131;SDS011;23035;50.032;21.978;2023-07-13T22:25:02;14.93;;;5.32;;
37131;SDS011;23035;50.032;21.978;2023-07-13T22:30:08;11.60;;;5.13;;
37131;SDS011;23035;50.032;21.978;2023-07-13T22:35:14;13.55;;;5.55;;
37131;SDS011;23035;50.032;21.978;2023-07-13T22:40:20;12.93;;;5.60;;
37131;SDS011;23035;50.032;21.978;2023-07-13T22:45:24;11.18;;;5.18;;
37131;SDS011;23035;50.032;21.978;2023-07-13T22:50:28;11.45;;;5.10;;
37131;SDS011;23035;50.032;21.978;2023-07-13T22:55:33;15.63;;;5.00;;
37131;SDS011;23035;50.032;21.978;2023-07-13T23:00:37;9.02;;;5.18;;
37131;SDS011;23035;50.032;21.978;2023-07-13T23:05:41;10.98;;;4.75;;
37131;SDS011;23035;50.032;21.978;2023-07-13T23:10:47;13.88;;;5.18;;
37131;SDS011;23035;50.032;21.978;2023-07-13T23:15:55;12.70;;;4.78;;
37131;SDS011;23035;50.032;21.978;2023-07-13T23:20:59;12.30;;;4.70;;
37131;SDS011;23035;50.032;21.978;2023-07-13T23:26:07;20.15;;;5.43;;
37131;SDS011;23035;50.032;21.978;2023-07-13T23:31:15;11.68;;;4.47;;
37131;SDS011;23035;50.032;21.978;2023-07-13T23:36:24;6.95;;;4.68;;
37131;SDS011;23035;50.032;21.978;2023-07-13T23:41:30;14.15;;;4.70;;
37131;SDS011;23035;50.032;21.978;2023-07-13T23:46:36;11.18;;;4.57;;
37131;SDS011;23035;50.032;21.978;2023-07-13T23:51:43;12.70;;;4.68;;
37131;SDS011;23035;50.032;21.978;2023-07-13T23:56:52;15.45;;;5.32;;
